Seymour, Wisconsin
Current Conditions -  °F | °C
As of 4:53 PM on Wednesday 17 Dec 2014 (Local Time) from KGRB Reporting Station
Overcast Overcast  
Wind Chill: 16°   Ceiling: 3300
Heat Index: 26°   Visibility: 10mi
Dew Point: 16°   Wind: 10mph
Humidity: 66%   Direction: 280°W
Pressure: 30.21"   Gusts: NA
Location:  44.51°N, 88.33°W
Report Text: KGRB 172253Z AUTO 28009KT 10SM OVC033 M03/M09 A3021 RMK AO2 SLP240 T10331089
Loading
Personal Weather Stations






























Interactive Weather Map New forecast layout! Learn more

10-Day Weather Forecast

Advertisements
Track Severe Weather on mobile